createdAt,value
2018-06-10T00:00:49.963Z,6.80
2018-06-10T00:02:42.820Z,6.50
2018-06-10T00:03:42.722Z,6.40
2018-06-10T00:05:35.657Z,6.30
2018-06-10T00:06:35.570Z,6.10
2018-06-10T00:08:28.447Z,6.50
2018-06-10T00:09:28.326Z,5.90
2018-06-10T00:11:21.176Z,6.20
2018-06-10T00:12:21.067Z,6.10
2018-06-10T00:14:13.919Z,6.40
2018-06-10T00:15:13.831Z,6.30
2018-06-10T00:17:06.647Z,6.30
2018-06-10T00:18:06.549Z,6.10
2018-06-10T00:19:59.413Z,6.40
2018-06-10T00:20:59.300Z,6.40
2018-06-10T00:22:52.161Z,6.20
2018-06-10T00:23:52.048Z,6.20
2018-06-10T00:25:44.938Z,6.40
2018-06-10T00:26:44.795Z,6.40
2018-06-10T00:28:37.658Z,6.20
2018-06-10T00:29:37.568Z,6.20
2018-06-10T00:31:30.401Z,6.10
2018-06-10T00:32:30.321Z,6.10
2018-06-10T00:34:23.161Z,6.40
2018-06-10T00:35:23.067Z,6.60
2018-06-10T00:37:15.899Z,6.00
2018-06-10T00:38:15.805Z,6.10
2018-06-10T00:40:08.759Z,6.50
2018-06-10T00:41:08.675Z,6.10
2018-06-10T00:43:01.498Z,6.30
2018-06-10T00:44:01.421Z,6.40
2018-06-10T00:45:54.243Z,6.40
2018-06-10T00:46:54.148Z,6.50
2018-06-10T00:48:47.019Z,6.00
2018-06-10T00:49:46.895Z,6.40
2018-06-10T00:51:39.745Z,6.40
2018-06-10T00:52:39.649Z,6.40
2018-06-10T00:54:32.503Z,6.50
2018-06-10T00:55:32.400Z,6.50
2018-06-10T00:57:25.258Z,6.50
2018-06-10T00:58:25.148Z,6.40
2018-06-10T01:00:17.989Z,6.60
2018-06-10T01:01:17.904Z,6.60
2018-06-10T01:03:10.759Z,6.50
2018-06-10T01:04:10.638Z,6.70
2018-06-10T01:06:03.539Z,6.50
2018-06-10T01:07:03.399Z,6.30
2018-06-10T01:08:56.278Z,6.60
2018-06-10T01:09:56.155Z,6.60
2018-06-10T01:11:48.987Z,6.80
2018-06-10T01:12:48.920Z,6.60
2018-06-10T01:14:41.751Z,6.50
2018-06-10T01:15:41.646Z,6.70
2018-06-10T01:17:34.527Z,6.30
2018-06-10T01:18:34.416Z,6.90
2018-06-10T01:20:27.234Z,6.80
2018-06-10T01:21:27.153Z,6.20
2018-06-10T01:23:19.995Z,6.60
2018-06-10T01:24:19.891Z,6.30
2018-06-10T01:26:12.739Z,6.40
2018-06-10T01:27:12.670Z,6.80
2018-06-10T01:29:05.495Z,6.50
2018-06-10T01:30:05.411Z,6.90
2018-06-10T01:31:58.340Z,6.70
2018-06-10T01:32:58.216Z,7.00
2018-06-10T01:34:51.010Z,6.60
2018-06-10T01:35:50.902Z,6.80
2018-06-10T01:37:43.747Z,6.50
2018-06-10T01:38:43.649Z,6.50
2018-06-10T01:40:36.502Z,6.40
2018-06-10T01:41:36.390Z,6.60
2018-06-10T01:43:29.266Z,6.30
2018-06-10T01:44:29.135Z,7.00
2018-06-10T01:46:22.078Z,6.80
2018-06-10T01:47:22.008Z,6.60
2018-06-10T01:49:14.847Z,6.50
2018-06-10T01:50:14.762Z,6.60
2018-06-10T01:52:07.581Z,6.50
2018-06-10T01:53:07.517Z,6.20
2018-06-10T01:55:00.349Z,6.80
2018-06-10T01:56:00.239Z,6.60
2018-06-10T01:57:53.117Z,6.60
2018-06-10T01:58:52.986Z,6.50
2018-06-10T02:00:45.844Z,6.60
2018-06-10T02:01:45.751Z,6.90
2018-06-10T02:03:38.576Z,6.70
2018-06-10T02:04:38.485Z,6.70
2018-06-10T02:06:31.358Z,6.40
2018-06-10T02:07:31.264Z,6.40
2018-06-10T02:09:24.079Z,6.40
2018-06-10T02:10:23.993Z,6.60
2018-06-10T02:12:16.850Z,7.10
2018-06-10T02:13:16.750Z,6.60
2018-06-10T02:15:10.103Z,6.80
2018-06-10T02:16:09.487Z,6.50
2018-06-10T02:18:02.348Z,6.60
2018-06-10T02:19:02.260Z,6.70
2018-06-10T02:20:55.091Z,6.60
2018-06-10T02:21:54.987Z,6.60
2018-06-10T02:23:47.841Z,6.40
2018-06-10T02:24:47.732Z,6.90
2018-06-10T02:26:41.103Z,7.00
2018-06-10T02:27:41.009Z,6.80
2018-06-10T02:29:33.839Z,7.30
2018-06-10T02:30:33.757Z,7.10
2018-06-10T02:32:26.637Z,6.70
2018-06-10T02:33:26.496Z,7.10
2018-06-10T02:35:19.331Z,6.60
2018-06-10T02:36:19.262Z,7.00
2018-06-10T02:38:12.117Z,6.80
2018-06-10T02:39:11.988Z,7.00
2018-06-10T02:41:04.836Z,7.20
2018-06-10T02:42:04.751Z,6.70
2018-06-10T02:43:57.602Z,7.40
2018-06-10T02:44:57.510Z,6.90
2018-06-10T02:46:50.351Z,7.00
2018-06-10T02:47:50.246Z,7.20
2018-06-10T02:49:43.099Z,7.70
2018-06-10T02:50:43.005Z,7.50
2018-06-10T02:52:35.854Z,7.40
2018-06-10T02:53:35.752Z,7.50
2018-06-10T02:55:29.129Z,7.20
2018-06-10T02:56:28.900Z,7.20
2018-06-10T02:58:21.762Z,7.40
2018-06-10T02:59:21.653Z,7.30
2018-06-10T03:01:14.499Z,7.40
2018-06-10T03:02:14.404Z,7.80
2018-06-10T03:04:07.257Z,7.30
2018-06-10T03:05:07.147Z,7.10
2018-06-10T03:07:00.010Z,7.30
2018-06-10T03:07:59.913Z,7.30
2018-06-10T03:09:52.759Z,7.60
2018-06-10T03:10:52.668Z,7.40
2018-06-10T03:12:45.488Z,7.60
2018-06-10T03:13:45.398Z,7.40
2018-06-10T03:15:38.266Z,7.30
2018-06-10T03:16:38.147Z,7.30
2018-06-10T03:18:31.017Z,8.00
2018-06-10T03:19:30.892Z,7.20
2018-06-10T03:21:23.765Z,7.60
2018-06-10T03:22:23.646Z,7.60
2018-06-10T03:24:16.503Z,7.60
2018-06-10T03:25:16.405Z,7.40
2018-06-10T03:27:09.266Z,7.50
2018-06-10T03:28:09.146Z,7.60
2018-06-10T03:30:02.005Z,7.40
2018-06-10T03:31:01.901Z,7.80
2018-06-10T03:32:54.737Z,8.00
2018-06-10T03:33:54.648Z,7.60
2018-06-10T03:35:47.520Z,7.70
2018-06-10T03:36:47.405Z,7.50
2018-06-10T03:38:40.236Z,7.60
2018-06-10T03:39:40.161Z,7.80
2018-06-10T03:41:33.001Z,7.80
2018-06-10T03:42:32.894Z,7.50
2018-06-10T03:44:25.753Z,7.50
2018-06-10T03:45:25.645Z,7.60
2018-06-10T03:47:18.492Z,7.90
2018-06-10T03:48:18.402Z,7.70
2018-06-10T03:50:11.228Z,7.60
2018-06-10T03:51:11.154Z,7.60
2018-06-10T03:53:04.020Z,7.70
2018-06-10T03:54:03.897Z,7.50
2018-06-10T03:55:57.276Z,7.50
2018-06-10T03:56:57.157Z,7.70
2018-06-10T03:58:49.991Z,7.50
2018-06-10T03:59:49.908Z,7.50
2018-06-10T04:01:42.754Z,7.10
2018-06-10T04:02:42.690Z,7.40
2018-06-10T04:04:35.520Z,7.60
2018-06-10T04:05:35.411Z,7.60
2018-06-10T04:07:28.330Z,7.10
2018-06-10T04:08:28.209Z,7.30
2018-06-10T04:10:20.988Z,7.60
2018-06-10T04:11:20.929Z,7.40
2018-06-10T04:13:13.757Z,7.00
2018-06-10T04:14:13.675Z,7.20
2018-06-10T04:16:06.491Z,7.50
2018-06-10T04:17:06.396Z,7.10
2018-06-10T04:18:59.262Z,7.30
2018-06-10T04:19:59.162Z,7.30
2018-06-10T04:21:51.994Z,7.00
2018-06-10T04:22:51.914Z,7.50
2018-06-10T04:24:44.871Z,7.30
2018-06-10T04:25:44.657Z,7.10
2018-06-10T04:27:37.517Z,7.10
2018-06-10T04:28:37.391Z,7.00
2018-06-10T04:30:30.666Z,7.40
2018-06-10T04:31:30.570Z,7.30
2018-06-10T04:33:23.432Z,7.70
2018-06-10T04:34:23.328Z,7.20
2018-06-10T04:36:16.669Z,6.80
2018-06-10T04:37:16.056Z,6.80
2018-06-10T04:39:08.937Z,7.00
2018-06-10T04:40:08.804Z,7.00
2018-06-10T04:42:01.647Z,6.50
2018-06-10T04:43:01.562Z,7.00
2018-06-10T04:44:54.440Z,6.80
2018-06-10T04:45:54.312Z,6.60
2018-06-10T04:47:47.180Z,7.20
2018-06-10T04:48:47.054Z,6.70
2018-06-10T04:50:39.912Z,7.00
2018-06-10T04:51:39.811Z,6.90
2018-06-10T04:53:32.657Z,7.20
2018-06-10T04:54:32.555Z,6.70
2018-06-10T04:56:25.422Z,7.30
2018-06-10T04:57:25.317Z,7.20
2018-06-10T04:59:18.598Z,7.00
2018-06-10T05:00:18.466Z,6.30
2018-06-10T05:02:11.311Z,6.80
2018-06-10T05:03:11.217Z,6.70
2018-06-10T05:05:04.088Z,6.80
2018-06-10T05:06:03.973Z,7.10
2018-06-10T05:07:57.340Z,6.70
2018-06-10T05:08:57.233Z,6.60
2018-06-10T05:10:50.106Z,7.10
2018-06-10T05:11:50.005Z,7.20
2018-06-10T05:13:42.823Z,7.10
2018-06-10T05:14:42.766Z,7.00
2018-06-10T05:16:35.585Z,6.90
2018-06-10T05:17:35.469Z,6.80
2018-06-10T05:19:28.333Z,6.90
2018-06-10T05:20:28.278Z,7.00
2018-06-10T05:22:21.086Z,7.10
2018-06-10T05:23:20.969Z,7.00
2018-06-10T05:25:13.840Z,7.20
2018-06-10T05:26:13.719Z,7.60
2018-06-10T05:28:06.556Z,7.90
2018-06-10T05:29:06.475Z,7.30
2018-06-10T05:30:59.343Z,7.80
2018-06-10T05:31:59.217Z,7.60
2018-06-10T05:33:52.090Z,7.90
2018-06-10T05:34:51.968Z,7.90
2018-06-10T05:36:44.844Z,8.00
2018-06-10T05:37:44.716Z,7.90
2018-06-10T05:39:37.576Z,7.90
2018-06-10T05:40:37.463Z,7.80
2018-06-10T05:42:30.348Z,8.10
2018-06-10T05:43:30.250Z,7.80
2018-06-10T05:45:23.507Z,8.20
2018-06-10T05:46:23.380Z,7.90
2018-06-10T05:48:16.220Z,8.30
2018-06-10T05:49:16.141Z,8.30
2018-06-10T05:51:09.002Z,8.00
2018-06-10T05:52:08.890Z,8.10
2018-06-10T05:54:02.140Z,8.60
2018-06-10T05:55:02.055Z,8.40
2018-06-10T05:56:54.895Z,8.80
2018-06-10T05:57:54.786Z,8.50
2018-06-10T05:59:47.629Z,8.80
2018-06-10T06:00:47.531Z,8.30
2018-06-10T06:02:40.391Z,9.30
2018-06-10T06:03:40.286Z,9.10
2018-06-10T06:05:33.121Z,9.10
2018-06-10T06:06:33.034Z,8.70
2018-06-10T06:08:25.911Z,9.60
2018-06-10T06:09:25.786Z,9.00
2018-06-10T06:11:18.642Z,9.10
2018-06-10T06:12:18.557Z,8.90
2018-06-10T06:14:11.411Z,9.50
2018-06-10T06:15:11.298Z,9.40
2018-06-10T06:17:04.163Z,9.50
2018-06-10T06:18:04.037Z,9.20
2018-06-10T06:19:56.880Z,10.30
2018-06-10T06:20:56.789Z,10.10
2018-06-10T06:22:49.642Z,10.50
2018-06-10T06:23:49.549Z,10.70
2018-06-10T06:25:42.391Z,10.70
2018-06-10T06:26:42.296Z,10.60
2018-06-10T06:28:35.140Z,10.90
2018-06-10T06:29:35.041Z,10.20
2018-06-10T06:31:27.888Z,11.40
2018-06-10T06:32:27.818Z,11.70
2018-06-10T06:34:20.677Z,12.40
2018-06-10T06:35:20.542Z,12.50
2018-06-10T06:37:13.368Z,12.30
2018-06-10T06:38:13.310Z,12.20
2018-06-10T06:40:06.168Z,12.70
2018-06-10T06:41:06.030Z,12.90
2018-06-10T06:42:58.875Z,12.90
2018-06-10T06:43:58.785Z,13.00
2018-06-10T06:45:51.670Z,13.10
2018-06-10T06:46:51.541Z,13.20
2018-06-10T06:48:44.387Z,13.10
2018-06-10T06:49:44.314Z,13.90
2018-06-10T06:51:37.121Z,14.20
2018-06-10T06:52:37.078Z,12.70
2018-06-10T06:54:29.887Z,13.90
2018-06-10T06:55:29.794Z,13.60
2018-06-10T06:57:22.620Z,13.20
2018-06-10T06:58:22.531Z,13.50
2018-06-10T07:00:15.403Z,13.20
2018-06-10T07:01:15.310Z,13.60
2018-06-10T07:03:08.131Z,13.50
2018-06-10T07:04:08.027Z,15.00
2018-06-10T07:06:00.944Z,14.40
2018-06-10T07:07:00.775Z,13.60
2018-06-10T07:08:53.622Z,14.80
2018-06-10T07:09:53.537Z,15.40
2018-06-10T07:11:46.401Z,13.60
2018-06-10T07:12:46.274Z,13.40
2018-06-10T07:14:39.135Z,13.50
2018-06-10T07:15:39.032Z,13.60
2018-06-10T07:17:31.889Z,13.70
2018-06-10T07:18:31.777Z,13.00
2018-06-10T07:20:25.061Z,13.80
2018-06-10T07:21:24.963Z,13.20
2018-06-10T07:23:17.791Z,13.60
2018-06-10T07:24:17.685Z,12.00
2018-06-10T07:26:10.578Z,13.00
2018-06-10T07:27:10.434Z,13.20
2018-06-10T07:29:03.289Z,12.10
2018-06-10T07:30:03.184Z,12.80
2018-06-10T07:31:56.040Z,12.50
2018-06-10T07:32:55.939Z,11.90
2018-06-10T07:34:48.777Z,12.70
2018-06-10T07:35:48.684Z,13.40
2018-06-10T07:37:41.540Z,12.90
2018-06-10T07:38:41.432Z,12.20
2018-06-10T07:40:34.294Z,12.50
2018-06-10T07:41:34.185Z,12.10
2018-06-10T07:43:27.044Z,11.40
2018-06-10T07:44:26.933Z,11.90
2018-06-10T07:46:19.805Z,12.60
2018-06-10T07:47:19.696Z,12.30
2018-06-10T07:49:12.521Z,11.30
2018-06-10T07:50:12.432Z,10.70
2018-06-10T07:52:05.802Z,12.00
2018-06-10T07:53:05.592Z,12.60
2018-06-10T07:54:58.431Z,12.30
2018-06-10T07:55:58.358Z,12.60
2018-06-10T07:57:51.211Z,13.00
2018-06-10T07:58:51.103Z,13.60
2018-06-10T08:00:43.924Z,12.70
2018-06-10T08:01:43.845Z,13.40
2018-06-10T08:03:36.719Z,13.80
2018-06-10T08:04:36.586Z,14.20
2018-06-10T08:06:29.430Z,12.40
2018-06-10T08:07:29.355Z,13.00
2018-06-10T08:09:22.191Z,13.30
2018-06-10T08:10:22.085Z,13.60
2018-06-10T08:12:14.921Z,11.40
2018-06-10T08:13:14.846Z,12.00
2018-06-10T08:15:07.724Z,13.10
2018-06-10T08:16:07.603Z,13.70
2018-06-10T08:18:00.453Z,12.60
2018-06-10T08:19:00.340Z,12.20
2018-06-10T08:20:53.611Z,12.90
2018-06-10T08:21:53.499Z,12.60
2018-06-10T08:23:46.352Z,14.00
2018-06-10T08:24:46.261Z,12.50
2018-06-10T08:26:39.182Z,12.30
2018-06-10T08:27:39.106Z,12.10
2018-06-10T08:29:32.465Z,12.00
2018-06-10T08:30:31.866Z,11.40
2018-06-10T08:32:24.699Z,12.70
2018-06-10T08:33:24.592Z,12.50
2018-06-10T08:35:17.492Z,12.20
2018-06-10T08:36:17.344Z,13.10
2018-06-10T08:38:10.206Z,12.70
2018-06-10T08:39:10.101Z,12.20
2018-06-10T08:41:02.953Z,11.90
2018-06-10T08:42:02.873Z,11.80
2018-06-10T08:43:55.807Z,12.20
2018-06-10T08:44:55.600Z,12.60
2018-06-10T08:46:49.360Z,12.80
2018-06-10T08:47:48.354Z,12.80
2018-06-10T08:49:41.235Z,12.70
2018-06-10T08:50:41.094Z,13.60
2018-06-10T08:52:33.932Z,13.50
2018-06-10T08:53:33.846Z,14.20
2018-06-10T08:55:26.700Z,11.90
2018-06-10T08:56:26.601Z,11.80
2018-06-10T08:58:19.451Z,12.10
2018-06-10T08:59:19.358Z,12.50
2018-06-10T09:01:12.190Z,11.20
2018-06-10T09:02:12.113Z,11.80
2018-06-10T09:04:04.967Z,11.50
2018-06-10T09:05:04.857Z,11.40
2018-06-10T09:06:57.694Z,10.60
2018-06-10T09:07:57.611Z,10.40
2018-06-10T09:09:50.458Z,10.40
2018-06-10T09:10:50.348Z,10.00
2018-06-10T09:12:43.225Z,9.50
2018-06-10T09:13:43.100Z,9.50
2018-06-10T09:15:35.951Z,9.10
2018-06-10T09:16:35.841Z,9.40
2018-06-10T09:18:28.700Z,8.80
2018-06-10T09:19:28.605Z,8.80
2018-06-10T09:21:21.461Z,8.20
2018-06-10T09:22:21.409Z,8.10
2018-06-10T09:24:14.245Z,8.00
2018-06-10T09:25:14.101Z,8.00
2018-06-10T09:27:06.931Z,7.90
2018-06-10T09:28:06.853Z,7.70
2018-06-10T09:29:59.698Z,7.60
2018-06-10T09:30:59.588Z,7.40
2018-06-10T09:32:52.437Z,6.80
2018-06-10T09:33:52.350Z,7.20
2018-06-10T09:35:45.195Z,6.40
2018-06-10T09:36:45.109Z,6.40
2018-06-10T09:38:37.950Z,6.60
2018-06-10T09:39:37.840Z,6.40
2018-06-10T09:41:30.692Z,6.50
2018-06-10T09:42:30.585Z,6.20
2018-06-10T09:44:23.446Z,6.20
2018-06-10T09:45:23.357Z,5.50
2018-06-10T09:47:16.174Z,5.70
2018-06-10T09:48:16.094Z,6.00
2018-06-10T09:50:08.953Z,6.10
2018-06-10T09:51:08.842Z,6.10
2018-06-10T09:53:01.719Z,6.30
2018-06-10T09:54:01.589Z,6.30
2018-06-10T09:55:54.448Z,5.80
2018-06-10T09:56:54.341Z,6.10
2018-06-10T09:58:47.192Z,5.90
2018-06-10T09:59:47.095Z,6.20
2018-06-10T10:01:39.933Z,6.10
2018-06-10T10:02:39.838Z,6.10
2018-06-10T10:04:32.696Z,6.20
2018-06-10T10:05:32.594Z,6.10
2018-06-10T10:07:25.448Z,6.50
2018-06-10T10:08:25.337Z,6.30
2018-06-10T10:10:18.191Z,5.50
2018-06-10T10:11:18.102Z,5.60
2018-06-10T10:13:10.931Z,6.00
2018-06-10T10:14:10.845Z,5.70
2018-06-10T10:16:03.707Z,5.70
2018-06-10T10:17:03.597Z,5.40
2018-06-10T10:18:56.435Z,4.80
2018-06-10T10:19:56.332Z,4.90
2018-06-10T10:21:49.168Z,5.30
2018-06-10T10:22:49.085Z,5.10
2018-06-10T10:24:41.936Z,5.00
2018-06-10T10:25:41.850Z,5.20
2018-06-10T10:27:34.683Z,5.00
2018-06-10T10:28:34.589Z,5.00
2018-06-10T10:30:27.436Z,4.80
2018-06-10T10:31:27.348Z,5.30
2018-06-10T10:33:20.176Z,4.90
2018-06-10T10:34:20.078Z,4.70
2018-06-10T10:36:12.933Z,5.00
2018-06-10T10:37:12.838Z,4.70
2018-06-10T10:39:05.689Z,5.20
2018-06-10T10:40:05.583Z,5.00
2018-06-10T10:41:58.426Z,5.10
2018-06-10T10:42:58.353Z,4.90
2018-06-10T10:44:51.192Z,5.00
2018-06-10T10:45:51.087Z,4.30
2018-06-10T10:47:43.922Z,4.70
2018-06-10T10:48:43.846Z,4.70
2018-06-10T10:50:36.713Z,4.80
2018-06-10T10:51:36.586Z,4.80
2018-06-10T10:53:29.455Z,5.00
2018-06-10T10:54:29.349Z,4.60
2018-06-10T10:56:22.168Z,5.10
2018-06-10T10:57:22.070Z,4.70
2018-06-10T10:59:14.930Z,4.90
2018-06-10T11:00:14.836Z,4.50
2018-06-10T11:02:07.664Z,4.80
2018-06-10T11:03:07.575Z,5.30
2018-06-10T11:05:00.454Z,4.70
2018-06-10T11:06:00.322Z,5.10
2018-06-10T11:07:53.193Z,5.10
2018-06-10T11:08:53.077Z,4.60
2018-06-10T11:10:45.933Z,4.80
2018-06-10T11:11:45.816Z,5.10
2018-06-10T11:13:38.719Z,4.90
2018-06-10T11:14:38.580Z,5.00
2018-06-10T11:16:31.416Z,5.40
2018-06-10T11:17:31.316Z,5.00
2018-06-10T11:19:24.186Z,5.20
2018-06-10T11:20:24.069Z,5.50
2018-06-10T11:22:16.918Z,5.00
2018-06-10T11:23:16.840Z,5.30
2018-06-10T11:25:10.637Z,5.10
2018-06-10T11:26:10.488Z,5.60
2018-06-10T11:28:03.325Z,5.50
2018-06-10T11:29:03.255Z,5.60
2018-06-10T11:30:56.105Z,5.60
2018-06-10T11:31:56.009Z,5.40
2018-06-10T11:33:48.870Z,5.50
2018-06-10T11:34:48.747Z,5.70
2018-06-10T11:36:41.605Z,6.10
2018-06-10T11:37:41.504Z,5.80
2018-06-10T11:39:34.347Z,6.10
2018-06-10T11:40:34.248Z,7.60
2018-06-10T11:42:27.160Z,8.40
2018-06-10T11:43:27.000Z,8.50
2018-06-10T11:45:20.764Z,8.90
2018-06-10T11:46:20.667Z,9.40
2018-06-10T11:48:13.498Z,9.40
2018-06-10T11:49:13.448Z,9.30
2018-06-10T11:51:06.328Z,9.30
2018-06-10T11:52:06.235Z,9.40
2018-06-10T11:53:59.016Z,9.50
2018-06-10T11:54:58.914Z,9.40
2018-06-10T11:56:51.755Z,9.30
2018-06-10T11:57:51.682Z,9.70
2018-06-10T11:59:44.521Z,9.60
2018-06-10T12:00:44.430Z,9.50
2018-06-10T12:02:37.253Z,9.30
2018-06-10T12:03:37.167Z,9.00
2018-06-10T12:05:30.034Z,8.60
2018-06-10T12:06:29.918Z,8.70
2018-06-10T12:08:22.746Z,7.60
2018-06-10T12:09:22.653Z,7.50
2018-06-10T12:11:15.510Z,7.80
2018-06-10T12:12:15.405Z,8.30
2018-06-10T12:14:08.251Z,8.10
2018-06-10T12:15:08.159Z,8.30
2018-06-10T12:17:01.024Z,7.80
2018-06-10T12:18:00.909Z,8.00
2018-06-10T12:19:53.769Z,7.70
2018-06-10T12:20:53.654Z,7.10
2018-06-10T12:22:46.559Z,7.80
2018-06-10T12:23:46.424Z,8.30
2018-06-10T12:25:39.771Z,8.00
2018-06-10T12:26:39.684Z,8.00
2018-06-10T12:28:32.518Z,7.90
2018-06-10T12:29:32.420Z,8.10
2018-06-10T12:31:25.276Z,7.80
2018-06-10T12:32:25.183Z,7.40
2018-06-10T12:34:17.996Z,7.20
2018-06-10T12:35:17.975Z,7.10
2018-06-10T12:37:10.791Z,7.70
2018-06-10T12:38:10.669Z,7.50
2018-06-10T12:40:03.526Z,7.60
2018-06-10T12:41:03.417Z,7.50
2018-06-10T12:42:56.276Z,7.40
2018-06-10T12:43:56.157Z,7.50
2018-06-10T12:45:49.022Z,7.80
2018-06-10T12:46:48.923Z,7.10
2018-06-10T12:48:41.770Z,7.60
2018-06-10T12:49:41.669Z,8.40
2018-06-10T12:51:34.506Z,8.10
2018-06-10T12:52:34.422Z,7.80
2018-06-10T12:54:27.265Z,7.40
2018-06-10T12:55:27.183Z,7.30
2018-06-10T12:57:20.021Z,7.70
2018-06-10T12:58:19.911Z,7.10
2018-06-10T13:00:12.758Z,7.20
2018-06-10T13:01:12.679Z,8.00
2018-06-10T13:03:05.542Z,7.50
2018-06-10T13:04:05.441Z,8.20
2018-06-10T13:05:58.791Z,7.50
2018-06-10T13:06:58.212Z,7.40
2018-06-10T13:08:51.013Z,7.00
2018-06-10T13:09:50.922Z,6.70
2018-06-10T13:11:43.748Z,7.20
2018-06-10T13:12:43.667Z,7.40
2018-06-10T13:14:36.557Z,7.30
2018-06-10T13:15:36.429Z,7.50
2018-06-10T13:17:29.270Z,7.90
2018-06-10T13:18:29.166Z,7.60
2018-06-10T13:20:22.046Z,7.20
2018-06-10T13:21:21.911Z,7.50
2018-06-10T13:23:14.761Z,7.20
2018-06-10T13:24:14.679Z,7.10
2018-06-10T13:26:07.513Z,7.70
2018-06-10T13:27:07.425Z,7.70
2018-06-10T13:29:00.247Z,7.80
2018-06-10T13:30:00.189Z,7.40
2018-06-10T13:31:53.030Z,8.10
2018-06-10T13:32:52.926Z,7.90
2018-06-10T13:34:45.797Z,8.10
2018-06-10T13:35:45.663Z,7.80
2018-06-10T13:37:38.520Z,7.70
2018-06-10T13:38:38.413Z,7.60
2018-06-10T13:40:31.284Z,7.80
2018-06-10T13:41:31.185Z,7.30
2018-06-10T13:43:25.035Z,7.10
2018-06-10T13:44:24.418Z,7.10
2018-06-10T13:46:17.324Z,6.90
2018-06-10T13:47:17.177Z,7.10
2018-06-10T13:49:10.028Z,7.20
2018-06-10T13:50:09.923Z,7.50
2018-06-10T13:52:02.778Z,7.70
2018-06-10T13:53:02.675Z,7.50
2018-06-10T13:54:55.524Z,6.70
2018-06-10T13:55:55.468Z,7.00
2018-06-10T13:57:48.286Z,6.70
2018-06-10T13:58:48.187Z,6.50
2018-06-10T14:00:41.024Z,6.10
2018-06-10T14:01:40.922Z,6.20
2018-06-10T14:03:33.776Z,6.20
2018-06-10T14:04:33.699Z,5.60
2018-06-10T14:06:26.522Z,5.50
2018-06-10T14:07:26.439Z,5.80
2018-06-10T14:09:19.295Z,5.90
2018-06-10T14:10:19.176Z,5.50
2018-06-10T14:12:12.028Z,5.30
2018-06-10T14:13:11.922Z,5.50
2018-06-10T14:15:04.763Z,5.30
2018-06-10T14:16:04.677Z,4.90
2018-06-10T14:17:57.560Z,4.90
2018-06-10T14:18:57.426Z,5.10
2018-06-10T14:20:50.261Z,5.10
2018-06-10T14:21:50.169Z,5.40
2018-06-10T14:23:43.050Z,5.50
2018-06-10T14:24:42.921Z,5.00
2018-06-10T14:26:36.277Z,4.80
2018-06-10T14:27:36.198Z,5.20
2018-06-10T14:29:29.021Z,5.10
2018-06-10T14:30:28.919Z,5.20
2018-06-10T14:32:21.772Z,5.10
2018-06-10T14:33:21.690Z,5.00
2018-06-10T14:35:15.051Z,4.70
2018-06-10T14:36:14.966Z,5.00
2018-06-10T14:38:07.820Z,5.20
2018-06-10T14:39:07.691Z,5.20
2018-06-10T14:41:00.539Z,4.90
2018-06-10T14:42:00.446Z,5.20
2018-06-10T14:43:53.315Z,5.30
2018-06-10T14:44:53.179Z,5.40
2018-06-10T14:46:46.565Z,5.20
2018-06-10T14:47:45.936Z,4.90
2018-06-10T14:49:38.786Z,5.50
2018-06-10T14:50:38.695Z,5.50
2018-06-10T14:52:31.533Z,5.60
2018-06-10T14:53:31.452Z,5.80
2018-06-10T14:55:24.378Z,5.50
2018-06-10T14:56:24.291Z,5.50
2018-06-10T14:58:17.141Z,5.50
2018-06-10T14:59:17.045Z,5.30
2018-06-10T15:01:09.888Z,5.50
2018-06-10T15:02:09.796Z,5.10
2018-06-10T15:04:02.635Z,5.60
2018-06-10T15:05:02.542Z,5.90
2018-06-10T15:06:55.402Z,5.40
2018-06-10T15:07:55.323Z,5.70
2018-06-10T15:09:48.641Z,6.10
2018-06-10T15:10:48.551Z,5.70
2018-06-10T15:12:41.418Z,5.90
2018-06-10T15:13:41.302Z,6.10
2018-06-10T15:15:34.139Z,6.20
2018-06-10T15:16:34.083Z,6.20
2018-06-10T15:18:26.905Z,6.80
2018-06-10T15:19:26.810Z,6.30
2018-06-10T15:21:19.660Z,6.60
2018-06-10T15:22:19.546Z,6.40
2018-06-10T15:24:12.397Z,6.70
2018-06-10T15:25:12.294Z,6.30
2018-06-10T15:27:05.125Z,6.30
2018-06-10T15:28:05.052Z,6.40
2018-06-10T15:29:57.915Z,6.30
2018-06-10T15:30:57.803Z,6.20
2018-06-10T15:32:50.637Z,6.30
2018-06-10T15:33:50.606Z,6.20
2018-06-10T15:35:43.402Z,6.20
2018-06-10T15:36:43.295Z,5.90
2018-06-10T15:38:36.123Z,5.90
2018-06-10T15:39:36.040Z,5.80
2018-06-10T15:41:28.911Z,5.70
2018-06-10T15:42:28.797Z,5.50
2018-06-10T15:44:22.157Z,5.70
2018-06-10T15:45:22.051Z,5.20
2018-06-10T15:47:14.910Z,5.30
2018-06-10T15:48:14.813Z,5.10
2018-06-10T15:50:07.664Z,5.00
2018-06-10T15:51:07.572Z,5.00
2018-06-10T15:53:00.390Z,4.80
2018-06-10T15:54:00.296Z,4.80
2018-06-10T15:55:53.149Z,5.50
2018-06-10T15:56:53.051Z,5.40
2018-06-10T15:58:45.887Z,5.20
2018-06-10T15:59:45.807Z,5.10
2018-06-10T16:01:38.650Z,5.10
2018-06-10T16:02:38.575Z,4.90
2018-06-10T16:04:31.420Z,4.80
2018-06-10T16:05:31.297Z,5.00
2018-06-10T16:07:24.243Z,5.40
2018-06-10T16:08:24.150Z,5.40
2018-06-10T16:10:17.035Z,5.70
2018-06-10T16:11:16.895Z,5.60
2018-06-10T16:13:09.730Z,5.40
2018-06-10T16:14:09.639Z,5.50
2018-06-10T16:16:03.041Z,5.60
2018-06-10T16:17:02.496Z,5.60
2018-06-10T16:18:55.242Z,5.70
2018-06-10T16:19:55.150Z,5.60
2018-06-10T16:21:48.017Z,6.20
2018-06-10T16:22:47.893Z,6.10
2018-06-10T16:24:40.745Z,6.30
2018-06-10T16:25:40.649Z,6.10
2018-06-10T16:27:34.001Z,6.60
2018-06-10T16:28:33.916Z,6.60
2018-06-10T16:30:26.790Z,6.50
2018-06-10T16:31:26.662Z,6.30
2018-06-10T16:33:19.506Z,6.60
2018-06-10T16:34:19.414Z,6.80
2018-06-10T16:36:12.259Z,7.20
2018-06-10T16:37:12.160Z,7.20
2018-06-10T16:39:04.991Z,6.90
2018-06-10T16:40:04.912Z,6.60
2018-06-10T16:41:57.776Z,6.70
2018-06-10T16:42:57.652Z,6.60
2018-06-10T16:44:50.527Z,6.80
2018-06-10T16:45:50.425Z,7.00
2018-06-10T16:47:43.238Z,7.10
2018-06-10T16:48:43.162Z,6.90
2018-06-10T16:50:36.533Z,7.00
2018-06-10T16:51:36.420Z,7.10
2018-06-10T16:53:29.246Z,7.40
2018-06-10T16:54:29.185Z,7.20
2018-06-10T16:56:22.012Z,7.10
2018-06-10T16:57:21.921Z,7.00
2018-06-10T16:59:14.760Z,6.60
2018-06-10T17:00:14.684Z,6.50
2018-06-10T17:02:07.520Z,7.20
2018-06-10T17:03:07.424Z,7.00
2018-06-10T17:05:00.908Z,7.10
2018-06-10T17:06:00.779Z,7.00
2018-06-10T17:07:53.658Z,7.20
2018-06-10T17:08:53.541Z,7.10
2018-06-10T17:10:46.386Z,7.20
2018-06-10T17:11:46.277Z,7.30
2018-06-10T17:13:39.159Z,7.90
2018-06-10T17:14:39.044Z,7.90
2018-06-10T17:16:31.895Z,7.90
2018-06-10T17:17:31.798Z,8.20
2018-06-10T17:19:24.620Z,8.00
2018-06-10T17:20:24.536Z,7.50
2018-06-10T17:22:17.385Z,7.40
2018-06-10T17:23:17.281Z,7.00
2018-06-10T17:25:10.621Z,7.80
2018-06-10T17:26:10.536Z,7.50
2018-06-10T17:28:03.401Z,7.70
2018-06-10T17:29:03.285Z,8.00
2018-06-10T17:30:56.632Z,8.10
2018-06-10T17:31:56.584Z,8.90
2018-06-10T17:33:49.388Z,8.40
2018-06-10T17:34:49.294Z,8.70
2018-06-10T17:36:42.167Z,7.90
2018-06-10T17:37:42.061Z,8.20
2018-06-10T17:39:34.881Z,8.90
2018-06-10T17:40:34.809Z,8.90
2018-06-10T17:42:27.716Z,9.00
2018-06-10T17:43:27.543Z,9.30
2018-06-10T17:45:20.402Z,9.20
2018-06-10T17:46:20.306Z,9.50
2018-06-10T17:48:13.187Z,10.80
2018-06-10T17:49:13.050Z,10.90
2018-06-10T17:51:05.882Z,12.00
2018-06-10T17:52:05.791Z,11.70
2018-06-10T17:53:58.767Z,12.00
2018-06-10T17:54:58.547Z,11.90
2018-06-10T17:56:51.400Z,13.90
2018-06-10T17:57:51.317Z,13.70
2018-06-10T17:59:44.136Z,13.00
2018-06-10T18:00:44.037Z,12.80
2018-06-10T18:02:36.912Z,13.80
2018-06-10T18:03:36.798Z,13.90
2018-06-10T18:05:29.634Z,14.30
2018-06-10T18:06:29.570Z,14.50
2018-06-10T18:08:22.394Z,15.60
2018-06-10T18:09:22.306Z,14.50
2018-06-10T18:11:15.541Z,15.40
2018-06-10T18:12:15.469Z,15.50
2018-06-10T18:14:08.303Z,15.80
2018-06-10T18:15:08.244Z,16.50
2018-06-10T18:17:01.057Z,15.70
2018-06-10T18:18:00.973Z,15.30
2018-06-10T18:19:53.785Z,15.30
2018-06-10T18:20:53.732Z,15.70
2018-06-10T18:22:46.596Z,15.80
2018-06-10T18:23:46.448Z,15.90
2018-06-10T18:25:39.288Z,15.70
2018-06-10T18:26:39.290Z,15.30
2018-06-10T18:28:32.068Z,15.70
2018-06-10T18:29:31.970Z,14.80
2018-06-10T18:31:24.785Z,15.40
2018-06-10T18:32:24.698Z,15.40
2018-06-10T18:34:17.554Z,14.40
2018-06-10T18:35:17.445Z,14.60
2018-06-10T18:37:10.297Z,14.30
2018-06-10T18:38:10.191Z,14.60
2018-06-10T18:40:03.040Z,13.70
2018-06-10T18:41:02.953Z,13.30
2018-06-10T18:42:55.796Z,13.90
2018-06-10T18:43:55.727Z,13.80
2018-06-10T18:45:48.545Z,12.70
2018-06-10T18:46:48.452Z,13.30
2018-06-10T18:48:41.307Z,12.90
2018-06-10T18:49:41.192Z,13.20
2018-06-10T18:51:34.039Z,12.60
2018-06-10T18:52:33.996Z,12.80
2018-06-10T18:54:26.795Z,12.60
2018-06-10T18:55:26.700Z,12.60
2018-06-10T18:57:19.548Z,12.50
2018-06-10T18:58:19.435Z,12.70
2018-06-10T19:00:12.312Z,11.80
2018-06-10T19:01:12.208Z,12.70